Barney, North Dakota
Current Conditions -  °F | °C
As of 6:35 AM on Monday 22 Dec 2014 (Local Time) from KBWP Reporting Station
Overcast Overcast  
Wind Chill: 26°   Ceiling: 100
Heat Index: 34°   Visibility: 1.2mi
Dew Point: 32°   Wind: 9mph
Humidity: 93%   Direction: 140°SE
Pressure: 29.49"   Gusts: NA
Location:  46.27°N, 97°W
Report Text: KBWP 221235Z AUTO 14008KT 1 1/4SM OVC001 01/00 A2949 RMK AO1
Loading
Personal Weather Stations






























Interactive Weather Map New forecast layout! Learn more

10-Day Weather Forecast

Advertisements
Track Severe Weather on mobile